Time;durP1;ratioP1;P1;durP2;ratioP2;P2;SDS_P1;SDS_P2;PMS_P1;PMS_P2;Temp;Humidity;BMP_temperature;BMP_pressure;BME280_temperature;BME280_humidity;BME280_pressure;Samples;Min_cycle;Max_cycle;Signal;HPM_P1;HPM_P2
2022/11/03 00:01:29;;;;;;;17.52;10.58;;;;;;;7.45;100.00;99465.64;2112432;84;21017;-85
2022/11/03 00:04:30;;;;;;;22.73;10.85;;;;;;;7.44;100.00;99466.61;2116826;83;21029;-84
2022/11/03 00:07:31;;;;;;;15.13;8.68;;;;;;;7.44;100.00;99468.39;2102024;84;20971;-85
2022/11/03 00:10:32;;;;;;;25.57;10.78;;;;;;;7.43;100.00;99470.66;2115210;83;21013;-84
2022/11/03 00:13:32;;;;;;;19.57;10.18;;;;;;;7.37;100.00;99474.64;2101239;83;20988;-85
2022/11/03 00:16:33;;;;;;;23.73;12.13;;;;;;;7.33;100.00;99471.98;2112625;84;21033;-84
2022/11/03 00:19:34;;;;;;;21.60;12.25;;;;;;;7.25;100.00;99467.95;2113155;84;20988;-84
2022/11/03 00:22:35;;;;;;;21.02;11.48;;;;;;;7.21;100.00;99468.70;2095171;84;21078;-85
2022/11/03 00:25:35;;;;;;;21.52;11.85;;;;;;;7.19;100.00;99469.32;2121243;83;20990;-84
2022/11/03 00:28:36;;;;;;;21.97;12.28;;;;;;;7.17;100.00;99467.34;2114105;83;20985;-84
2022/11/03 00:31:37;;;;;;;27.50;13.05;;;;;;;7.16;100.00;99469.61;2110391;84;20965;-84
2022/11/03 00:34:37;;;;;;;25.80;12.65;;;;;;;7.16;100.00;99467.01;2111903;84;21031;-84
2022/11/03 00:37:38;;;;;;;18.45;11.00;;;;;;;7.17;100.00;99463.92;2107815;84;21000;-84
2022/11/03 00:40:39;;;;;;;20.92;11.73;;;;;;;7.19;100.00;99472.41;2117320;84;21057;-84
2022/11/03 00:43:39;;;;;;;22.15;12.13;;;;;;;7.18;100.00;99465.56;2114136;84;20993;-84
2022/11/03 00:46:40;;;;;;;22.20;11.63;;;;;;;7.13;100.00;99470.72;2104412;84;21028;-84
2022/11/03 00:49:41;;;;;;;18.80;12.00;;;;;;;7.10;100.00;99469.67;2103239;84;21469;-84
2022/11/03 00:52:42;;;;;;;21.85;12.15;;;;;;;7.08;100.00;99469.00;2116119;83;20977;-85
2022/11/03 00:55:42;;;;;;;21.25;11.70;;;;;;;7.06;100.00;99473.53;2100109;84;20934;-83
2022/11/03 00:58:43;;;;;;;24.67;13.35;;;;;;;7.04;100.00;99470.25;2108650;84;20914;-84
2022/11/03 01:01:44;;;;;;;19.87;11.80;;;;;;;7.03;100.00;99476.39;2103574;83;21536;-84
2022/11/03 01:08:06;;;;;;;16.07;10.82;;;;;;;7.04;100.00;99469.40;2128747;82;21555;-84
2022/11/03 01:14:26;;;;;;;24.57;13.60;;;;;;;7.00;100.00;99479.28;2112718;83;21546;-83
2022/11/03 01:17:27;;;;;;;25.45;13.88;;;;;;;6.97;100.00;99468.33;2102392;83;20981;-84
2022/11/03 01:20:27;;;;;;;26.07;13.48;;;;;;;6.92;100.00;99479.14;2097600;83;21012;-83
2022/11/03 01:23:28;;;;;;;21.55;12.88;;;;;;;6.91;100.00;99476.69;2097911;83;21024;-83
2022/11/03 01:26:29;;;;;;;22.02;13.48;;;;;;;6.90;100.00;99476.34;2137463;83;20945;-84
2022/11/03 01:29:30;;;;;;;20.82;13.60;;;;;;;6.85;100.00;99479.34;2102913;83;20993;-83
2022/11/03 01:32:31;;;;;;;24.75;13.95;;;;;;;6.85;100.00;99479.34;2117061;83;20961;-84
2022/11/03 01:35:31;;;;;;;29.25;14.68;;;;;;;6.83;100.00;99473.45;2123852;83;20984;-83
2022/11/03 01:38:32;;;;;;;24.75;15.53;;;;;;;6.83;100.00;99476.06;2098662;83;20949;-84
2022/11/03 01:41:33;;;;;;;19.55;12.60;;;;;;;6.83;100.00;99474.76;2110477;83;20969;-84
2022/11/03 01:44:34;;;;;;;21.45;14.00;;;;;;;6.80;100.00;99472.44;2122565;83;20964;-84
2022/11/03 01:47:34;;;;;;;21.25;11.63;;;;;;;6.75;100.00;99473.31;2089235;83;20942;-84
2022/11/03 01:50:35;;;;;;;22.40;12.43;;;;;;;6.72;100.00;99472.30;2133906;83;20945;-84
2022/11/03 01:53:37;;;;;;;23.15;12.28;;;;;;;6.68;100.00;99470.45;2099764;83;21068;-83
2022/11/03 01:56:37;;;;;;;21.02;11.70;;;;;;;6.69;100.00;99466.08;2102749;83;20945;-85
2022/11/03 01:59:38;;;;;;;24.10;12.50;;;;;;;6.66;100.00;99463.24;2097843;84;21044;-84
2022/11/03 02:02:39;;;;;;;18.37;11.75;;;;;;;6.62;100.00;99464.97;2108602;83;20976;-83
2022/11/03 02:05:39;;;;;;;26.10;13.08;;;;;;;6.59;100.00;99467.37;2132938;83;21059;-83
2022/11/03 02:08:40;;;;;;;27.02;13.78;;;;;;;6.58;100.00;99472.20;2113736;84;21028;-83
2022/11/03 02:15:00;;;;;;;23.77;12.53;;;;;;;6.58;100.00;99473.50;2128027;84;20984;-84
2022/11/03 02:18:01;;;;;;;23.40;13.55;;;;;;;6.59;100.00;99475.66;2111702;84;20965;-82
2022/11/03 02:21:02;;;;;;;19.48;12.63;;;;;;;6.56;100.00;99465.02;2099862;84;21576;-83
2022/11/03 02:24:03;;;;;;;21.65;12.07;;;;;;;6.58;100.00;99467.00;2113656;84;21008;-83
2022/11/03 02:27:04;;;;;;;23.18;12.68;;;;;;;6.53;100.00;99466.13;2105161;84;20989;-82
2022/11/03 02:30:04;;;;;;;24.60;13.32;;;;;;;6.48;100.00;99469.59;2169529;82;20949;-82
2022/11/03 02:33:05;;;;;;;18.50;11.83;;;;;;;6.44;100.00;99478.64;2168061;82;20974;-83
2022/11/03 02:36:06;;;;;;;20.50;11.35;;;;;;;6.41;100.00;99475.49;2119239;83;20997;-83
2022/11/03 02:39:07;;;;;;;15.32;10.98;;;;;;;6.32;100.00;99473.22;2105396;85;20986;-84
2022/11/03 02:42:07;;;;;;;22.15;11.97;;;;;;;6.32;100.00;99479.72;2103192;85;21039;-83
2022/11/03 02:45:08;;;;;;;20.08;12.85;;;;;;;6.30;100.00;99484.20;2102851;85;21431;-84
2022/11/03 02:48:09;;;;;;;22.15;12.40;;;;;;;6.26;100.00;99484.14;2174165;82;20965;-83
2022/11/03 02:51:10;;;;;;;23.27;13.08;;;;;;;6.25;100.00;99478.13;2128330;83;21020;-83
2022/11/03 02:54:10;;;;;;;20.88;12.55;;;;;;;6.23;100.00;99485.24;2171953;82;21430;-83
2022/11/03 02:57:11;;;;;;;22.13;11.95;;;;;;;6.22;100.00;99481.00;2122115;83;21018;-83
2022/11/03 03:00:12;;;;;;;22.52;13.00;;;;;;;6.19;100.00;99475.22;2165126;82;20986;-83
2022/11/03 03:03:13;;;;;;;21.12;12.98;;;;;;;6.14;100.00;99477.41;2170463;82;21449;-83
2022/11/03 03:06:13;;;;;;;20.60;12.40;;;;;;;6.06;100.00;99475.47;2173615;81;20965;-83
2022/11/03 03:09:14;;;;;;;18.37;11.65;;;;;;;6.02;100.00;99479.75;2199103;80;20977;-83
2022/11/03 03:12:15;;;;;;;26.07;12.95;;;;;;;5.93;100.00;99479.58;2184627;81;20941;-83
2022/11/03 03:15:16;;;;;;;17.95;11.50;;;;;;;5.88;100.00;99482.22;2168981;80;21024;-83
2022/11/03 03:18:16;;;;;;;21.15;12.03;;;;;;;5.84;100.00;99478.22;2173078;80;21014;-83
2022/11/03 03:21:17;;;;;;;20.43;12.18;;;;;;;5.78;100.00;99479.58;2115257;83;21041;-84
2022/11/03 03:24:18;;;;;;;22.82;12.65;;;;;;;5.71;100.00;99483.16;2110365;83;21040;-84
2022/11/03 03:27:19;;;;;;;19.40;12.33;;;;;;;5.67;100.00;99488.77;2101742;83;20949;-84
2022/11/03 03:30:20;;;;;;;26.12;13.13;;;;;;;5.65;100.00;99486.27;2133493;82;21012;-83
2022/11/03 03:33:21;;;;;;;18.90;12.82;;;;;;;5.65;100.00;99491.47;2102330;84;21045;-83
2022/11/03 03:36:22;;;;;;;21.15;12.88;;;;;;;5.65;100.00;99485.45;2122944;84;21033;-83
2022/11/03 03:39:22;;;;;;;26.80;14.23;;;;;;;5.67;100.00;99490.06;2149933;81;20982;-82
2022/11/03 03:42:23;;;;;;;26.93;13.68;;;;;;;5.68;100.00;99480.02;2163887;81;20959;-83
2022/11/03 03:45:24;;;;;;;31.42;16.15;;;;;;;5.69;100.00;99475.98;2167688;82;20938;-83
2022/11/03 03:48:24;;;;;;;34.65;15.38;;;;;;;5.72;100.00;99478.78;2160392;82;20979;-83
2022/11/03 03:51:25;;;;;;;28.57;16.15;;;;;;;5.74;100.00;99485.15;2161734;82;20923;-83
2022/11/03 03:54:26;;;;;;;33.60;15.95;;;;;;;5.75;100.00;99485.02;2174514;82;21013;-83
2022/11/03 03:57:27;;;;;;;29.82;16.00;;;;;;;5.73;100.00;99485.63;2147708;81;21504;-83
2022/11/03 04:00:28;;;;;;;27.60;14.60;;;;;;;5.69;100.00;99486.86;2153271;81;21064;-83
2022/11/03 04:03:29;;;;;;;30.50;15.35;;;;;;;5.63;100.00;99491.26;2161207;81;20954;-83
2022/11/03 04:06:29;;;;;;;23.12;13.88;;;;;;;5.56;100.00;99489.64;2147628;83;21666;-84
2022/11/03 04:09:30;;;;;;;33.70;16.65;;;;;;;5.50;100.00;99488.05;2152687;82;20946;-82
2022/11/03 04:22:16;;;;;;;36.55;16.05;;;;;;;5.37;100.00;99481.74;2173397;80;21019;-84
2022/11/03 04:25:16;;;;;;;31.25;16.12;;;;;;;5.35;100.00;99486.25;2167504;80;21033;-83
2022/11/03 04:28:17;;;;;;;38.00;18.45;;;;;;;5.32;100.00;99482.14;2120129;83;21477;-84
2022/11/03 04:31:18;;;;;;;34.73;16.55;;;;;;;5.30;100.00;99482.75;2105177;83;21033;-85
2022/11/03 04:34:18;;;;;;;36.20;16.65;;;;;;;5.26;100.00;99479.22;2107550;83;20954;-83
2022/11/03 04:37:19;;;;;;;32.58;17.55;;;;;;;5.18;100.00;99483.74;2095729;83;20982;-84
2022/11/03 04:40:20;;;;;;;29.50;17.02;;;;;;;5.11;100.00;99475.63;2108150;83;21001;-83
2022/11/03 04:43:21;;;;;;;26.73;13.83;;;;;;;5.07;100.00;99483.33;2106299;83;20958;-83
2022/11/03 04:46:21;;;;;;;26.05;15.72;;;;;;;5.05;100.00;99492.20;2129452;83;21048;-84
2022/11/03 04:49:22;;;;;;;28.85;15.38;;;;;;;4.98;100.00;99488.45;2139342;82;20989;-84
2022/11/03 04:52:23;;;;;;;30.20;16.87;;;;;;;4.92;100.00;99482.45;2122504;83;20998;-84
2022/11/03 04:55:23;;;;;;;34.20;17.55;;;;;;;4.88;100.00;99476.70;2096129;84;20981;-84
2022/11/03 04:58:24;;;;;;;28.17;17.20;;;;;;;4.84;100.00;99472.69;2124274;84;20966;-83
2022/11/03 05:01:25;;;;;;;29.90;16.48;;;;;;;4.82;100.00;99472.82;2120358;84;20978;-84
2022/11/03 05:04:26;;;;;;;29.48;16.85;;;;;;;4.82;100.00;99474.59;2090322;84;21552;-84
2022/11/03 05:07:26;;;;;;;31.65;16.52;;;;;;;4.80;100.00;99472.12;2124149;83;21014;-84
2022/11/03 05:10:27;;;;;;;30.17;16.27;;;;;;;4.83;100.00;99473.17;2122532;84;20973;-84
2022/11/03 05:13:28;;;;;;;30.90;16.77;;;;;;;4.83;100.00;99466.68;2120385;83;21146;-84
2022/11/03 05:16:29;;;;;;;25.15;14.95;;;;;;;4.85;100.00;99465.28;2123755;83;20950;-84
2022/11/03 05:19:29;;;;;;;29.02;14.87;;;;;;;4.81;100.00;99464.69;2118697;83;20981;-83
2022/11/03 05:22:30;;;;;;;22.00;15.68;;;;;;;4.78;100.00;99464.95;2112856;84;20970;-85
2022/11/03 05:25:31;;;;;;;23.22;15.25;;;;;;;4.81;100.00;99465.16;2124111;83;20958;-81
2022/11/03 05:28:31;;;;;;;21.85;14.65;;;;;;;4.82;100.00;99468.92;2120014;83;21017;-83
2022/11/03 05:31:32;;;;;;;20.77;13.90;;;;;;;4.84;100.00;99469.62;2130166;83;21060;-81
2022/11/03 05:34:33;;;;;;;23.55;14.20;;;;;;;4.85;100.00;99475.19;2128600;83;21445;-80
2022/11/03 05:37:34;;;;;;;24.47;15.98;;;;;;;4.84;100.00;99476.58;2093489;84;21470;-81
2022/11/03 05:40:34;;;;;;;22.40;15.15;;;;;;;4.82;100.00;99474.59;2122592;84;20967;-80
2022/11/03 05:43:35;;;;;;;23.57;13.68;;;;;;;4.79;100.00;99476.15;2127877;83;20954;-88
2022/11/03 05:46:36;;;;;;;21.45;13.70;;;;;;;4.75;100.00;99471.66;2122616;83;20977;-84
2022/11/03 05:49:37;;;;;;;28.60;14.45;;;;;;;4.73;100.00;99477.94;2109000;83;21414;-81
2022/11/03 05:52:37;;;;;;;20.05;12.40;;;;;;;4.67;100.00;99477.15;2126917;83;21491;-82
2022/11/03 05:55:38;;;;;;;22.02;12.98;;;;;;;4.62;100.00;99477.98;2123043;83;21560;-81
2022/11/03 05:58:39;;;;;;;18.77;12.10;;;;;;;4.62;100.00;99487.88;2121823;83;21487;-81
2022/11/03 06:01:40;;;;;;;24.32;12.35;;;;;;;4.65;100.00;99490.22;2123671;83;21505;-80
2022/11/03 06:04:40;;;;;;;20.27;12.33;;;;;;;4.71;100.00;99484.55;2121742;83;21049;-83
2022/11/03 06:07:41;;;;;;;20.23;12.63;;;;;;;4.80;100.00;99485.10;2130584;83;21010;-81
2022/11/03 06:10:42;;;;;;;24.85;13.65;;;;;;;4.89;100.00;99485.30;2131602;83;20989;-81
2022/11/03 06:13:43;;;;;;;19.00;12.82;;;;;;;4.99;100.00;99490.09;2131428;83;21001;-88
2022/11/03 06:16:43;;;;;;;19.07;12.13;;;;;;;5.06;100.00;99490.77;2138761;83;20984;-81
2022/11/03 06:19:46;;;;;;;19.05;11.97;;;;;;;5.03;100.00;99484.99;2130533;83;21488;-80
2022/11/03 06:22:47;;;;;;;21.45;13.03;;;;;;;5.02;100.00;99505.41;2156985;81;20955;-80
2022/11/03 06:25:48;;;;;;;19.12;11.25;;;;;;;5.01;100.00;99495.50;2191280;81;21543;-80
2022/11/03 06:28:49;;;;;;;19.05;12.25;;;;;;;5.09;100.00;99498.30;2184198;80;20998;-80
2022/11/03 06:31:50;;;;;;;21.35;11.95;;;;;;;5.21;100.00;99504.28;2134843;83;21487;-80
2022/11/03 06:34:50;;;;;;;14.60;11.15;;;;;;;5.35;100.00;99505.25;2174428;81;21048;-81
2022/11/03 06:37:51;;;;;;;20.72;11.90;;;;;;;5.48;100.00;99503.74;2135127;83;20956;-78
2022/11/03 06:40:52;;;;;;;20.23;11.12;;;;;;;5.60;100.00;99498.84;2184395;81;21040;-79
2022/11/03 06:43:53;;;;;;;21.37;12.05;;;;;;;5.67;100.00;99499.98;2139753;83;20950;-81
2022/11/03 06:46:53;;;;;;;25.30;14.47;;;;;;;5.74;100.00;99507.23;2174439;81;20981;-81
2022/11/03 06:49:54;;;;;;;23.07;13.75;;;;;;;5.82;100.00;99503.52;2175051;82;20973;-80
2022/11/03 06:52:55;;;;;;;27.42;15.40;;;;;;;5.98;100.00;99501.30;2140197;83;21448;-80
2022/11/03 06:55:56;;;;;;;24.52;13.30;;;;;;;6.12;100.00;99502.22;2174516;81;20993;-80
2022/11/03 06:58:57;;;;;;;27.00;15.38;;;;;;;6.20;100.00;99498.48;2139572;83;20954;-83
2022/11/03 07:01:58;;;;;;;25.02;14.98;;;;;;;6.26;100.00;99500.57;2184310;81;21623;-82
2022/11/03 07:04:59;;;;;;;30.05;18.90;;;;;;;6.37;100.00;99495.73;2139589;83;21089;-81
2022/11/03 07:08:02;;;;;;;32.78;18.27;;;;;;;6.53;100.00;99496.52;2167814;81;21062;-78
2022/11/03 07:11:03;;;;;;;32.03;16.40;;;;;;;6.67;100.00;99499.20;2123622;84;21062;-80
2022/11/03 07:14:14;;;;;;;29.48;18.05;;;;;;;6.78;100.00;99488.20;2167896;82;21512;-78
2022/11/03 07:17:08;;;;;;;25.55;17.20;;;;;;;6.92;100.00;99493.46;2161873;82;21056;-78
2022/11/03 07:20:10;;;;;;;26.48;17.12;;;;;;;7.03;100.00;99488.59;2063762;86;21042;-80
2022/11/03 07:23:11;;;;;;;28.85;16.32;;;;;;;7.17;100.00;99490.78;2106328;84;21522;-80
2022/11/03 07:26:12;;;;;;;32.60;16.25;;;;;;;7.26;100.00;99484.74;2106347;84;20986;-80
2022/11/03 07:29:13;;;;;;;29.50;15.35;;;;;;;7.35;100.00;99485.69;2106455;84;21577;-80
2022/11/03 07:32:14;;;;;;;25.75;14.93;;;;;;;7.42;100.00;99486.78;2106736;84;21140;-81
2022/11/03 07:35:15;;;;;;;23.67;14.75;;;;;;;7.43;100.00;99470.18;2106554;84;21482;-80
2022/11/03 07:38:16;;;;;;;20.62;13.03;;;;;;;7.62;100.00;99479.24;2106331;84;21204;-80
2022/11/03 07:41:17;;;;;;;16.87;11.05;;;;;;;7.78;100.00;99468.22;2106498;84;21014;-79
2022/11/03 07:44:19;;;;;;;20.15;11.60;;;;;;;7.95;100.00;99471.38;2106821;84;21584;-79
2022/11/03 07:47:20;;;;;;;22.73;10.38;;;;;;;8.13;100.00;99465.36;2106503;84;21114;-80
2022/11/03 07:50:21;;;;;;;21.87;10.90;;;;;;;8.31;100.00;99463.61;2106501;84;20994;-80
2022/11/03 07:53:22;;;;;;;20.70;10.63;;;;;;;8.49;100.00;99462.36;2106519;84;21065;-80
2022/11/03 07:56:22;;;;;;;18.77;9.85;;;;;;;8.65;100.00;99468.23;2106581;84;21105;-81
2022/11/03 07:59:25;;;;;;;16.12;9.85;;;;;;;8.78;100.00;99468.22;2082812;84;21073;-81
2022/11/03 08:02:26;;;;;;;17.42;8.70;;;;;;;8.92;100.00;99466.03;2106476;84;21671;-81
2022/11/03 08:05:27;;;;;;;17.00;8.10;;;;;;;9.01;100.00;99462.52;2106710;84;20958;-76
2022/11/03 08:08:27;;;;;;;13.80;7.40;;;;;;;9.12;100.00;99454.43;2106269;84;21477;-82
2022/11/03 08:11:28;;;;;;;18.15;8.43;;;;;;;9.22;100.00;99455.16;2107196;84;20974;-81
2022/11/03 08:14:30;;;;;;;13.13;8.38;;;;;;;9.27;100.00;99450.30;2106883;84;21525;-78
2022/11/03 08:17:31;;;;;;;15.50;8.05;;;;;;;9.33;100.00;99454.93;2154650;82;21517;-79
2022/11/03 08:20:31;;;;;;;13.48;6.83;;;;;;;9.40;100.00;99457.72;2168195;82;21009;-81
2022/11/03 08:23:32;;;;;;;13.20;6.42;;;;;;;9.47;100.00;99450.91;2168921;82;21005;-80
2022/11/03 08:26:33;;;;;;;12.65;7.50;;;;;;;9.55;100.00;99453.58;2168608;82;20966;-80
2022/11/03 08:29:34;;;;;;;11.20;7.03;;;;;;;9.61;100.00;99451.66;2168071;82;20993;-80
2022/11/03 08:32:35;;;;;;;14.43;7.03;;;;;;;9.71;100.00;99445.50;2168067;82;20997;-81
2022/11/03 08:35:35;;;;;;;12.10;6.47;;;;;;;9.77;100.00;99443.55;2168141;82;21080;-81
2022/11/03 08:38:36;;;;;;;16.25;7.20;;;;;;;9.81;100.00;99443.09;2163813;82;21020;-80
2022/11/03 08:41:37;;;;;;;11.28;7.08;;;;;;;9.85;100.00;99440.97;2139967;82;20928;-82
2022/11/03 08:44:38;;;;;;;11.25;7.10;;;;;;;9.86;100.00;99442.60;2159550;81;20979;-82
2022/11/03 08:47:38;;;;;;;13.30;7.17;;;;;;;9.92;100.00;99436.27;2169969;81;20933;-83
2022/11/03 08:50:39;;;;;;;12.23;6.65;;;;;;;9.99;100.00;99433.84;2171383;81;21946;-82
2022/11/03 08:53:41;;;;;;;16.90;7.53;;;;;;;10.05;100.00;99433.68;2174461;81;20939;-82
2022/11/03 08:56:43;;;;;;;14.47;8.60;;;;;;;10.06;100.00;99427.47;2172150;82;21061;-82
2022/11/03 08:59:44;;;;;;;20.55;10.05;;;;;;;10.16;100.00;99432.11;2176232;81;21025;-82
2022/11/03 09:02:44;;;;;;;22.50;9.33;;;;;;;10.21;100.00;99429.81;2186497;81;20916;-82
2022/11/03 09:05:45;;;;;;;16.05;9.60;;;;;;;10.27;100.00;99425.78;2181787;80;20915;-81
2022/11/03 09:08:46;;;;;;;14.58;7.78;;;;;;;10.32;100.00;99424.30;2187500;81;21073;-80
2022/11/03 09:11:47;;;;;;;13.90;7.70;;;;;;;10.37;100.00;99421.22;2192198;81;20928;-81
2022/11/03 09:14:47;;;;;;;17.02;8.08;;;;;;;10.43;100.00;99425.33;2176170;79;20992;-80
2022/11/03 09:17:48;;;;;;;10.50;7.58;;;;;;;10.52;100.00;99424.85;2174855;80;20926;-80
2022/11/03 09:20:49;;;;;;;17.87;7.20;;;;;;;10.59;100.00;99422.39;2182430;80;20938;-81
2022/11/03 09:23:49;;;;;;;12.15;7.33;;;;;;;10.65;100.00;99422.56;2180702;80;21026;-80
2022/11/03 09:26:50;;;;;;;15.20;6.10;;;;;;;10.71;100.00;99415.38;2189565;81;20993;-81
2022/11/03 09:29:51;;;;;;;9.10;5.75;;;;;;;10.78;100.00;99411.59;2177227;80;21018;-81
2022/11/03 09:32:52;;;;;;;12.47;6.47;;;;;;;10.87;100.00;99414.53;2173045;80;21035;-82
2022/11/03 09:35:52;;;;;;;11.85;6.67;;;;;;;10.95;100.00;99409.30;2187820;81;21003;-82
2022/11/03 09:38:53;;;;;;;13.43;7.67;;;;;;;11.02;100.00;99409.46;2173688;80;20966;-81
2022/11/03 09:41:53;;;;;;;12.03;7.08;;;;;;;11.09;100.00;99403.89;2174042;81;21512;-81
2022/11/03 09:44:54;;;;;;;16.93;8.13;;;;;;;11.11;100.00;99396.18;2181956;80;20981;-83
2022/11/03 09:47:55;;;;;;;8.50;5.95;;;;;;;11.14;100.00;99402.88;2183051;80;21036;-81
2022/11/03 09:50:56;;;;;;;17.27;7.90;;;;;;;11.20;100.00;99393.55;2115501;83;21069;-82
2022/11/03 09:53:57;;;;;;;9.40;6.50;;;;;;;11.25;100.00;99391.26;2139596;82;21441;-81
2022/11/03 09:56:58;;;;;;;9.83;5.80;;;;;;;11.31;100.00;99388.77;2123208;83;21072;-83
2022/11/03 09:59:58;;;;;;;9.95;6.28;;;;;;;11.36;100.00;99383.03;2129375;83;20996;-81
2022/11/03 10:02:59;;;;;;;7.17;5.53;;;;;;;11.43;100.00;99376.14;2129686;83;21084;-82
2022/11/03 10:06:00;;;;;;;9.88;5.85;;;;;;;11.48;100.00;99373.81;2124296;83;21426;-82
2022/11/03 10:09:00;;;;;;;8.90;6.37;;;;;;;11.53;100.00;99366.76;2130341;83;21517;-82
2022/11/03 10:12:01;;;;;;;12.23;6.37;;;;;;;11.56;100.00;99363.29;2128088;83;20981;-82
2022/11/03 10:15:02;;;;;;;10.63;5.65;;;;;;;11.62;100.00;99350.82;2130529;83;21512;-82
2022/11/03 10:18:02;;;;;;;9.65;5.83;;;;;;;11.68;100.00;99347.98;2131924;83;20989;-82
2022/11/03 10:21:03;;;;;;;9.10;5.47;;;;;;;11.71;100.00;99345.05;2123684;84;20958;-82
2022/11/03 10:24:04;;;;;;;7.67;5.53;;;;;;;11.73;100.00;99344.38;2124629;83;21008;-82
2022/11/03 10:27:04;;;;;;;10.48;5.30;;;;;;;11.74;100.00;99336.82;2127759;83;20997;-82
2022/11/03 10:30:06;;;;;;;12.75;6.08;;;;;;;11.78;100.00;99328.09;2117373;84;21044;-82
2022/11/03 10:33:07;;;;;;;9.08;5.17;;;;;;;11.80;100.00;99326.99;2173846;81;21000;-82
2022/11/03 10:36:09;;;;;;;7.92;4.75;;;;;;;11.86;100.00;99321.53;2178235;81;21489;-82
2022/11/03 10:39:10;;;;;;;9.48;4.83;;;;;;;11.88;100.00;99315.11;2172443;81;21111;-81
2022/11/03 10:42:10;;;;;;;19.27;5.17;;;;;;;11.89;100.00;99308.90;2184032;81;20957;-82
2022/11/03 10:45:11;;;;;;;10.30;4.22;;;;;;;11.93;100.00;99306.73;2188479;81;21456;-81
2022/11/03 10:48:12;;;;;;;7.95;4.58;;;;;;;11.94;100.00;99306.55;2179895;81;21057;-82
2022/11/03 10:51:12;;;;;;;6.70;4.12;;;;;;;11.99;100.00;99313.92;2186212;80;22171;-82
2022/11/03 10:54:17;;;;;;;6.00;3.50;;;;;;;12.02;100.00;99304.38;2158578;81;21006;-82
2022/11/03 10:57:15;;;;;;;6.08;3.52;;;;;;;12.02;100.00;99300.44;2189091;80;22079;-82
2022/11/03 11:00:16;;;;;;;8.78;4.40;;;;;;;12.05;100.00;99294.02;2185467;81;21072;-82
2022/11/03 11:03:17;;;;;;;9.20;4.90;;;;;;;12.05;100.00;99291.39;2178822;82;21493;-82
2022/11/03 11:06:18;;;;;;;11.28;4.92;;;;;;;12.04;100.00;99287.95;2178850;82;21088;-81
2022/11/03 11:09:19;;;;;;;8.50;5.20;;;;;;;12.06;100.00;99291.71;2169668;82;21009;-82
2022/11/03 11:12:19;;;;;;;7.50;4.17;;;;;;;12.10;100.00;99286.45;2169675;81;21056;-83
2022/11/03 11:15:21;;;;;;;10.78;3.90;;;;;;;12.14;100.00;99271.47;2170035;82;21000;-80
2022/11/03 11:18:23;;;;;;;7.80;4.15;;;;;;;12.19;100.00;99269.65;2168914;82;21037;-81
2022/11/03 11:21:25;;;;;;;8.55;4.20;;;;;;;12.26;100.00;99262.70;2169848;82;20989;-81
2022/11/03 11:24:26;;;;;;;5.55;3.50;;;;;;;12.34;100.00;99260.48;2170010;82;21032;-82
2022/11/03 11:27:30;;;;;;;6.12;3.40;;;;;;;12.39;100.00;99256.34;2169391;82;21056;-83
2022/11/03 11:30:29;;;;;;;10.00;4.92;;;;;;;12.47;100.00;99252.33;2169617;82;21009;-81
2022/11/03 11:33:30;;;;;;;5.28;3.33;;;;;;;12.55;100.00;99242.75;2167711;80;20977;-82
2022/11/03 11:36:31;;;;;;;5.40;3.65;;;;;;;12.61;100.00;99241.52;2172792;81;20976;-80
2022/11/03 11:39:32;;;;;;;7.55;3.02;;;;;;;12.67;100.00;99235.55;2174590;82;21008;-81
2022/11/03 11:42:33;;;;;;;7.45;2.98;;;;;;;12.70;100.00;99232.55;2173766;81;21021;-80
2022/11/03 11:45:34;;;;;;;6.37;3.80;;;;;;;12.73;100.00;99236.66;2173883;81;21004;-80
2022/11/03 11:48:35;;;;;;;9.03;4.67;;;;;;;12.77;100.00;99226.90;2173753;81;20925;-81
2022/11/03 11:51:36;;;;;;;5.35;3.92;;;;;;;12.84;100.00;99224.88;2173943;81;21527;-81
2022/11/03 11:54:37;;;;;;;6.87;3.17;;;;;;;12.87;100.00;99216.11;2173796;81;21040;-81
2022/11/03 11:57:38;;;;;;;7.75;4.22;;;;;;;12.89;100.00;99215.42;2174274;81;20973;-81
2022/11/03 12:00:39;;;;;;;9.10;4.03;;;;;;;12.91;100.00;99202.94;2173867;81;20998;-80
2022/11/03 12:03:39;;;;;;;4.67;2.08;;;;;;;12.91;100.00;99199.50;2173713;81;20980;-82
2022/11/03 12:06:40;;;;;;;6.50;2.80;;;;;;;12.87;100.00;99191.65;2174166;81;21008;-81
2022/11/03 12:09:42;;;;;;;7.50;3.10;;;;;;;12.81;100.00;99183.52;2182254;81;21042;-82
2022/11/03 12:12:45;;;;;;;4.87;2.60;;;;;;;12.78;100.00;99189.61;2175692;82;21069;-81
2022/11/03 12:15:45;;;;;;;8.05;2.72;;;;;;;12.73;100.00;99174.41;2174356;81;20955;-81
2022/11/03 12:18:46;;;;;;;4.33;2.12;;;;;;;12.68;100.00;99168.87;2174757;82;21065;-84
2022/11/03 12:21:47;;;;;;;4.70;2.42;;;;;;;12.64;100.00;99172.88;2174883;81;20986;-81
2022/11/03 12:24:51;;;;;;;3.12;2.25;;;;;;;12.57;100.00;99164.08;2174811;82;21049;-80
2022/11/03 12:27:51;;;;;;;3.42;2.55;;;;;;;12.52;100.00;99163.80;2174439;82;22005;-81
2022/11/03 12:30:52;;;;;;;3.62;2.10;;;;;;;12.46;100.00;99157.47;2174706;82;20982;-81
2022/11/03 12:33:54;;;;;;;4.28;2.12;;;;;;;12.41;100.00;99155.05;2174664;81;20954;-81
2022/11/03 12:36:54;;;;;;;4.65;2.50;;;;;;;12.38;100.00;99156.73;2175225;82;21014;-81
2022/11/03 12:39:55;;;;;;;5.30;2.37;;;;;;;12.35;100.00;99152.67;2175121;82;21017;-81
2022/11/03 12:42:56;;;;;;;5.65;2.30;;;;;;;12.33;100.00;99147.26;2174584;81;21080;-82
2022/11/03 12:45:59;;;;;;;8.98;2.33;;;;;;;12.28;100.00;99141.75;2174607;82;20943;-81
2022/11/03 12:49:00;;;;;;;6.30;2.37;;;;;;;12.24;100.00;99140.77;2174705;82;21473;-81
2022/11/03 12:52:05;;;;;;;8.13;2.87;;;;;;;12.21;100.00;99131.95;2174418;81;20990;-80
2022/11/03 12:55:06;;;;;;;4.60;2.22;;;;;;;12.22;100.00;99128.33;2174367;82;21565;-81
2022/11/03 12:58:07;;;;;;;6.30;2.35;;;;;;;12.18;100.00;99125.77;2174590;81;21070;-81
2022/11/03 13:01:08;;;;;;;3.05;2.20;;;;;;;12.15;100.00;99123.97;2174632;81;21525;-81
2022/11/03 13:04:09;;;;;;;3.30;2.60;;;;;;;12.11;100.00;99115.66;2174469;81;20990;-81
2022/11/03 13:07:10;;;;;;;4.40;2.83;;;;;;;12.10;100.00;99107.47;2175778;81;21010;-81
2022/11/03 13:10:10;;;;;;;5.35;2.80;;;;;;;12.09;100.00;99105.84;2181917;81;21011;-81
2022/11/03 13:13:11;;;;;;;5.62;2.40;;;;;;;12.09;100.00;99107.16;2180875;82;20945;-80
2022/11/03 13:16:12;;;;;;;5.33;1.85;;;;;;;12.07;100.00;99106.52;2167452;81;21020;-80
2022/11/03 13:19:13;;;;;;;5.67;2.50;;;;;;;12.05;100.00;99106.36;2167218;82;20950;-81
2022/11/03 13:22:14;;;;;;;4.00;3.05;;;;;;;12.00;100.00;99098.23;2167358;82;21009;-81
2022/11/03 13:25:14;;;;;;;6.62;2.70;;;;;;;11.98;100.00;99101.50;2167307;82;20993;-81
2022/11/03 13:28:15;;;;;;;3.92;2.42;;;;;;;11.95;100.00;99093.00;2167156;82;20958;-82
2022/11/03 13:31:16;;;;;;;4.75;1.72;;;;;;;11.92;100.00;99094.68;2167077;82;21028;-82
2022/11/03 13:34:17;;;;;;;4.67;1.80;;;;;;;11.88;100.00;99084.70;2167245;82;21480;-81
2022/11/03 13:37:17;;;;;;;5.35;3.08;;;;;;;11.87;100.00;99081.27;2167264;82;21311;-84
2022/11/03 13:40:18;;;;;;;5.37;2.50;;;;;;;11.85;100.00;99075.39;2167349;82;21032;-85
2022/11/03 13:43:20;;;;;;;4.30;2.12;;;;;;;11.81;100.00;99072.82;2167157;82;21068;-82
2022/11/03 13:46:20;;;;;;;6.17;3.17;;;;;;;11.79;100.00;99067.38;2165020;82;20965;-83
2022/11/03 13:49:21;;;;;;;7.33;3.40;;;;;;;11.76;100.00;99071.68;2166469;81;21092;-84
2022/11/03 13:52:24;;;;;;;7.08;3.52;;;;;;;11.73;100.00;99065.48;2172306;82;21036;-86
2022/11/03 13:55:30;;;;;;;9.50;2.83;;;;;;;11.69;100.00;99065.02;2172023;80;20997;-77
2022/11/03 13:58:31;;;;;;;5.75;3.45;;;;;;;11.65;100.00;99061.94;2167047;82;21060;-77
2022/11/03 14:01:35;;;;;;;11.95;5.62;;;;;;;11.62;100.00;99066.23;2166618;82;21044;-84
2022/11/03 14:04:47;;;;;;;9.08;5.17;;;;;;;11.59;100.00;99065.27;2166674;82;20982;-85
2022/11/03 14:08:11;;;;;;;8.63;4.55;;;;;;;11.53;100.00;99064.68;2089695;85;21053;-84
2022/11/03 14:14:35;;;;;;;6.70;3.72;;;;;;;11.42;100.00;99063.77;1996712;88;21018;-84
2022/11/03 14:17:38;;;;;;;7.62;4.33;;;;;;;11.37;100.00;99059.56;2004686;88;21076;-79